Terminal Aerodrome Forecast
Issued by NWS

Home | Current Version | Previous Version | Text Only | Print | Product List | Glossary On
Versions: 1 2 3 4 5 6 7 8 9 10 11 12 13 14 15 16 17 18 19 20 21
000
FTUS43 KILX 190526
TAFCMI
TAF
KCMI 190526Z 1906/2006 07007KT P6SM BKN150
     FM191300 07010KT P6SM VCSH SCT015 OVC040
     FM191600 04010KT 4SM -RA BR OVC015
     FM192000 35012KT 4SM -RA BR OVC015
     FM200300 VRB06KT 4SM -RA BR OVC015=

USA.gov is the U.S. government's official web portal to all federal, state and local government web resources and services.